VOBL Airport Information

Runway Information
Runway 09 Length 13123 ft width 148 ft
Elevation 3001 ft Threshold 0 ft Heading 92
Runway 27 Length 13123 ft Width 148 ft
Elevation 2917 ft Threshold 0 ft Heading 272
Airport Frequencies
Type APP Name Frequency 121.25 MHZ
Type ATIS Name Frequency 128.675 MHZ
Type DELIVERY Name Frequency 121.82 MHZ
Type SMC Name Frequency 121.65 MHZ
Type TOWER Name Frequency 124.35 MHZ
Airport Navaids
Airport Weather Information & NOTAM
ADDS - METARS form results

(0211 UTC 23 August 2019)
Data provider http://aviationweather.gov/metar/data/
 
METAR text: VOBL 230200Z 27012KT 4000 BR SCT010 SCT012 BKN080 21/21 Q1014 NOSIG
Conditions at: VOBL (BENGALURU , IN) observed 0200 UTC 23 August 2019
Temperature: 21.0°C (70°F)
Dewpoint: 21.0°C (70°F) [RH = 100%]
Pressure (altimeter): 29.94 inches Hg (1014.0 mb)
Winds: from the W (270 degrees) at 14 MPH (12 knots; 6.2 m/s)
Visibility: 2.49 miles (4.01 km)
Ceiling: 8000 feet AGL
Clouds: scattered clouds at 1000 feet AGL
scattered clouds at 1200 feet AGL
broken clouds at 8000 feet AGL
Weather: BR  (mist)

METAR text: VOBL 230130Z 27010KT 4000 BR SCT010 SCT012 BKN080 21/21 Q1014 NOSIG
Conditions at: VOBL (BENGALURU , IN) observed 0130 UTC 23 August 2019
Temperature: 21.0°C (70°F)
Dewpoint: 21.0°C (70°F) [RH = 100%]
Pressure (altimeter): 29.94 inches Hg (1014.0 mb)
Winds: from the W (270 degrees) at 12 MPH (10 knots; 5.1 m/s)
Visibility: 2.49 miles (4.01 km)
Ceiling: 8000 feet AGL
Clouds: scattered clouds at 1000 feet AGL
scattered clouds at 1200 feet AGL
broken clouds at 8000 feet AGL
Weather: BR  (mist)

Forecast for: VOBL (BENGALURU , IN)
Text: TAF VOBL 230200Z 2303/2312 29010KT 6000 SCT010 SCT080
Forecast period: 0300 to 1200 UTC 23 August 2019
Forecast type: FROM: standard forecast or significant change
Winds: from the WNW (290 degrees) at 12 MPH (10 knots; 5.1 m/s)
Visibility: 4 miles (6 km)
Ceiling: at least 12,000 feet AGL
Clouds: scattered clouds at 1000 feet AGL
scattered clouds at 8000 feet AGL
Weather: no significant weather forecast for this period
Text: TEMPO 2309/2312 4000 RA DZ SCT008 SCT012 FEW025CB BKN080
Forecast period: 0900 to 1200 UTC 23 August 2019
Forecast type: TEMPORARY: The following changes expected for less than half the time period
Visibility: 2.49 miles (4.01 km)
Ceiling: at least 12,000 feet AGL
Clouds: scattered clouds at 800 feet AGL
scattered clouds at 1200 feet AGL
few clouds at 2500 feet AGL
Weather: RA DZ  (moderate rain, moderate drizzle)